createdAt,value
2022-08-22T00:01:13.022Z,2.30
2022-08-22T00:02:43.199Z,2.42
2022-08-22T00:02:46.133Z,3.08
2022-08-22T00:02:48.245Z,2.80
2022-08-22T00:02:55.977Z,2.70
2022-08-22T00:02:56.966Z,3.30
2022-08-22T00:02:57.968Z,2.53
2022-08-22T00:03:07.476Z,2.50
2022-08-22T00:03:09.777Z,2.55
2022-08-22T00:03:54.657Z,2.70
2022-08-22T00:06:30.536Z,3.55
2022-08-22T00:09:15.280Z,2.90
2022-08-22T00:11:49.529Z,3.20
2022-08-22T00:14:23.625Z,3.00
2022-08-22T00:17:01.576Z,3.42
2022-08-22T00:19:50.345Z,3.75
2022-08-22T00:22:26.707Z,3.38
2022-08-22T00:25:02.169Z,3.55
2022-08-22T00:27:35.957Z,2.95
2022-08-22T00:30:10.341Z,3.67
2022-08-22T00:32:43.671Z,3.70
2022-08-22T00:35:20.926Z,3.63
2022-08-22T00:38:00.380Z,4.00
2022-08-22T00:40:53.634Z,4.07
2022-08-22T00:43:52.598Z,4.38
2022-08-22T00:47:14.053Z,4.70
2022-08-22T00:50:04.717Z,4.63
2022-08-22T00:53:00.517Z,4.05
2022-08-22T00:55:48.206Z,4.38
2022-08-22T00:58:53.032Z,4.47
2022-08-22T01:01:29.831Z,4.65
2022-08-22T01:04:16.191Z,4.18
2022-08-22T01:06:58.698Z,4.50
2022-08-22T01:09:39.644Z,4.18
2022-08-22T01:12:25.874Z,5.00
2022-08-22T01:14:58.536Z,4.40
2022-08-22T01:17:52.571Z,4.40
2022-08-22T01:20:57.299Z,4.13
2022-08-22T01:24:01.915Z,4.93
2022-08-22T01:27:17.935Z,4.60
2022-08-22T01:30:16.469Z,4.50
2022-08-22T01:33:23.280Z,4.20
2022-08-22T01:36:31.137Z,4.80
2022-08-22T01:39:30.554Z,4.47
2022-08-22T01:42:43.522Z,4.78
2022-08-22T01:45:53.797Z,4.47
2022-08-22T01:48:27.369Z,4.65
2022-08-22T01:50:59.461Z,4.75
2022-08-22T01:53:40.703Z,4.63
2022-08-22T01:56:13.448Z,4.53
2022-08-22T01:58:55.028Z,4.22
2022-08-22T02:01:33.974Z,4.50
2022-08-22T02:04:07.496Z,4.82
2022-08-22T02:06:46.282Z,5.18
2022-08-22T02:09:32.973Z,4.75
2022-08-22T02:12:21.846Z,4.70
2022-08-22T02:15:00.665Z,5.15
2022-08-22T02:17:32.555Z,4.55
2022-08-22T02:20:07.957Z,5.18
2022-08-22T02:22:44.631Z,5.70
2022-08-22T02:25:22.783Z,4.65
2022-08-22T02:27:58.940Z,5.25
2022-08-22T02:30:45.059Z,5.85
2022-08-22T02:33:24.090Z,5.40
2022-08-22T02:36:00.349Z,4.93
2022-08-22T02:38:35.019Z,5.50
2022-08-22T02:41:15.781Z,5.35
2022-08-22T02:43:50.663Z,5.40
2022-08-22T02:46:28.380Z,5.22
2022-08-22T02:49:06.535Z,5.22
2022-08-22T02:51:47.426Z,5.13
2022-08-22T02:54:24.721Z,5.05
2022-08-22T02:57:02.080Z,5.30
2022-08-22T02:59:36.676Z,5.22
2022-08-22T03:02:33.577Z,5.25
2022-08-22T03:05:15.671Z,4.93
2022-08-22T03:07:50.299Z,5.13
2022-08-22T03:10:24.115Z,4.60
2022-08-22T03:13:03.835Z,4.85
2022-08-22T03:15:38.246Z,5.47
2022-08-22T03:18:19.759Z,5.07
2022-08-22T03:20:55.595Z,5.10
2022-08-22T03:23:37.853Z,5.20
2022-08-22T03:26:14.548Z,5.30
2022-08-22T03:28:58.923Z,5.20
2022-08-22T03:31:30.080Z,5.93
2022-08-22T03:34:20.369Z,5.40
2022-08-22T03:36:59.052Z,5.20
2022-08-22T03:39:49.870Z,6.00
2022-08-22T03:42:53.477Z,5.55
2022-08-22T03:46:12.128Z,5.07
2022-08-22T03:49:18.320Z,5.28
2022-08-22T03:52:05.096Z,5.68
2022-08-22T03:55:03.498Z,5.35
2022-08-22T03:57:59.147Z,5.35
2022-08-22T04:00:51.996Z,5.35
2022-08-22T04:04:01.466Z,4.82
2022-08-22T04:06:56.378Z,5.38
2022-08-22T04:09:59.656Z,5.05
2022-08-22T04:12:49.652Z,4.90
2022-08-22T04:16:13.090Z,5.07
2022-08-22T04:18:58.725Z,5.03
2022-08-22T04:21:43.178Z,5.45
2022-08-22T04:24:30.824Z,5.00
2022-08-22T04:27:03.537Z,5.28
2022-08-22T04:29:36.889Z,4.55
2022-08-22T04:32:14.009Z,4.75
2022-08-22T04:34:50.032Z,5.22
2022-08-22T04:37:23.423Z,4.82
2022-08-22T04:39:56.962Z,4.50
2022-08-22T04:42:33.675Z,4.68
2022-08-22T04:45:07.020Z,4.60
2022-08-22T04:47:39.185Z,4.90
2022-08-22T04:50:16.993Z,4.60
2022-08-22T04:53:09.180Z,4.57
2022-08-22T04:55:57.075Z,4.60
2022-08-22T04:58:56.654Z,4.72
2022-08-22T05:01:27.632Z,5.03
2022-08-22T05:04:02.394Z,5.05
2022-08-22T05:06:35.291Z,4.55
2022-08-22T05:09:11.861Z,4.15
2022-08-22T05:11:46.201Z,4.60
2022-08-22T05:14:20.013Z,4.75
2022-08-22T05:16:53.387Z,4.88
2022-08-22T05:19:33.392Z,4.28
2022-08-22T05:22:05.458Z,5.07
2022-08-22T05:24:42.251Z,4.90
2022-08-22T05:27:16.556Z,4.30
2022-08-22T05:30:06.982Z,4.30
2022-08-22T05:32:43.695Z,4.50
2022-08-22T05:35:12.431Z,4.68
2022-08-22T05:37:52.433Z,4.70
2022-08-22T05:40:24.679Z,4.82
2022-08-22T05:42:57.351Z,5.00
2022-08-22T05:45:28.417Z,5.00
2022-08-22T05:48:04.290Z,5.03
2022-08-22T05:50:41.226Z,4.97
2022-08-22T05:53:17.317Z,4.88
2022-08-22T05:55:58.999Z,5.03
2022-08-22T05:58:47.645Z,4.72
2022-08-22T06:01:30.207Z,5.10
2022-08-22T06:04:07.548Z,4.70
2022-08-22T06:09:58.522Z,5.45
2022-08-22T06:12:37.906Z,4.72
2022-08-22T06:15:20.992Z,4.88
2022-08-22T06:17:51.844Z,4.78
2022-08-22T06:20:23.263Z,4.70
2022-08-22T06:22:55.730Z,4.10
2022-08-22T06:25:30.050Z,4.20
2022-08-22T06:28:03.027Z,4.30
2022-08-22T06:30:31.885Z,4.85
2022-08-22T06:33:04.732Z,4.13
2022-08-22T06:35:51.031Z,4.22
2022-08-22T06:38:21.882Z,4.28
2022-08-22T06:40:55.846Z,4.15
2022-08-22T06:43:26.132Z,3.97
2022-08-22T06:45:54.870Z,3.95
2022-08-22T06:48:25.227Z,4.70
2022-08-22T06:50:59.153Z,4.28
2022-08-22T06:53:45.957Z,4.15
2022-08-22T06:56:26.576Z,3.88
2022-08-22T06:59:06.489Z,4.13
2022-08-22T07:01:38.856Z,4.10
2022-08-22T07:04:10.266Z,3.75
2022-08-22T07:06:46.480Z,3.58
2022-08-22T07:09:30.097Z,3.35
2022-08-22T07:12:17.299Z,3.17
2022-08-22T07:14:50.914Z,2.85
2022-08-22T07:17:24.869Z,3.42
2022-08-22T07:20:00.782Z,3.38
2022-08-22T07:22:33.120Z,3.50
2022-08-22T07:25:04.845Z,3.50
2022-08-22T07:28:01.353Z,2.78
2022-08-22T07:30:46.042Z,3.30
2022-08-22T07:33:28.759Z,3.10
2022-08-22T07:36:01.660Z,3.25
2022-08-22T07:38:43.154Z,3.67
2022-08-22T07:41:18.026Z,3.90
2022-08-22T07:43:51.985Z,3.45
2022-08-22T07:46:29.935Z,4.05
2022-08-22T07:49:09.628Z,3.35
2022-08-22T07:51:45.893Z,3.58
2022-08-22T07:54:21.420Z,3.10
2022-08-22T07:57:00.402Z,3.70
2022-08-22T07:59:34.474Z,4.45
2022-08-22T08:02:06.201Z,3.95
2022-08-22T08:04:40.438Z,3.55
2022-08-22T08:07:11.993Z,3.85
2022-08-22T08:09:44.591Z,4.03
2022-08-22T08:12:14.083Z,3.30
2022-08-22T08:14:48.031Z,3.40
2022-08-22T08:17:21.764Z,3.50
2022-08-22T08:19:54.474Z,3.28
2022-08-22T08:22:26.735Z,3.72
2022-08-22T08:24:57.577Z,3.55
2022-08-22T08:27:50.309Z,3.60
2022-08-22T08:30:36.826Z,3.55
2022-08-22T08:33:25.528Z,3.65
2022-08-22T08:36:03.383Z,3.53
2022-08-22T08:38:37.828Z,3.47
2022-08-22T08:41:40.600Z,3.47
2022-08-22T08:44:21.862Z,3.03
2022-08-22T08:47:16.995Z,3.72
2022-08-22T08:50:11.756Z,3.67
2022-08-22T08:53:07.922Z,3.90
2022-08-22T08:55:48.075Z,3.75
2022-08-22T08:58:34.670Z,3.50
2022-08-22T09:01:27.453Z,3.45
2022-08-22T09:04:23.006Z,3.33
2022-08-22T09:07:25.770Z,3.80
2022-08-22T09:10:16.694Z,3.60
2022-08-22T09:13:12.988Z,3.45
2022-08-22T09:16:10.121Z,4.05
2022-08-22T09:19:18.669Z,3.45
2022-08-22T09:22:25.100Z,3.67
2022-08-22T09:25:18.595Z,3.53
2022-08-22T09:27:55.358Z,3.35
2022-08-22T09:30:28.872Z,3.72
2022-08-22T09:33:01.429Z,3.72
2022-08-22T09:35:50.256Z,3.42
2022-08-22T09:38:34.571Z,3.35
2022-08-22T09:41:16.122Z,3.60
2022-08-22T09:43:49.314Z,3.00
2022-08-22T09:46:31.452Z,3.30
2022-08-22T09:49:12.469Z,3.60
2022-08-22T09:51:46.355Z,3.80
2022-08-22T09:54:36.863Z,3.25
2022-08-22T09:57:23.098Z,3.22
2022-08-22T10:00:15.018Z,3.40
2022-08-22T10:02:53.424Z,3.25
2022-08-22T10:05:40.495Z,3.38
2022-08-22T10:08:29.830Z,3.20
2022-08-22T10:11:24.643Z,2.88
2022-08-22T10:14:00.687Z,3.10
2022-08-22T10:20:07.383Z,3.00
2022-08-22T10:22:46.093Z,2.80
2022-08-22T10:25:33.250Z,3.33
2022-08-22T10:28:17.347Z,3.55
2022-08-22T10:31:08.636Z,3.38
2022-08-22T10:33:44.486Z,3.20
2022-08-22T10:36:26.224Z,3.42
2022-08-22T10:38:58.322Z,3.03
2022-08-22T10:41:37.161Z,3.20
2022-08-22T10:44:17.446Z,3.30
2022-08-22T10:47:08.047Z,3.50
2022-08-22T10:49:43.657Z,3.70
2022-08-22T10:52:33.127Z,3.55
2022-08-22T10:55:10.090Z,3.72
2022-08-22T10:57:56.416Z,2.92
2022-08-22T11:00:46.430Z,3.20
2022-08-22T11:03:25.610Z,4.13
2022-08-22T11:05:56.549Z,3.38
2022-08-22T11:08:58.017Z,3.10
2022-08-22T11:11:41.034Z,3.28
2022-08-22T11:14:38.080Z,2.83
2022-08-22T11:17:29.930Z,3.20
2022-08-22T11:20:15.592Z,2.92
2022-08-22T11:22:59.947Z,3.08
2022-08-22T11:25:54.152Z,3.28
2022-08-22T11:29:13.471Z,3.42
2022-08-22T11:31:52.284Z,3.90
2022-08-22T11:34:34.502Z,3.75
2022-08-22T11:37:11.073Z,3.53
2022-08-22T11:39:47.141Z,4.00
2022-08-22T11:42:25.959Z,3.30
2022-08-22T11:45:01.314Z,3.42
2022-08-22T11:47:37.050Z,3.95
2022-08-22T11:50:21.901Z,3.30
2022-08-22T11:53:23.682Z,3.50
2022-08-22T11:56:05.450Z,3.65
2022-08-22T11:58:46.602Z,3.35
2022-08-22T12:01:18.755Z,3.25
2022-08-22T12:04:03.467Z,3.45
2022-08-22T12:06:49.769Z,3.67
2022-08-22T12:09:47.903Z,3.95
2022-08-22T12:12:25.574Z,3.30
2022-08-22T12:15:10.861Z,3.95
2022-08-22T12:18:36.385Z,3.00
2022-08-22T12:21:38.555Z,3.33
2022-08-22T12:24:26.273Z,3.90
2022-08-22T12:27:33.240Z,4.00
2022-08-22T12:30:35.129Z,3.42
2022-08-22T12:33:41.661Z,3.63
2022-08-22T12:36:35.341Z,3.55
2022-08-22T12:39:49.138Z,3.40
2022-08-22T12:42:44.540Z,3.75
2022-08-22T12:45:28.870Z,3.47
2022-08-22T12:48:10.592Z,3.78
2022-08-22T12:51:03.303Z,3.55
2022-08-22T12:54:42.860Z,4.15
2022-08-22T12:57:23.813Z,4.03
2022-08-22T12:59:58.129Z,4.10
2022-08-22T13:02:44.153Z,3.60
2022-08-22T13:05:19.856Z,4.28
2022-08-22T13:08:04.556Z,3.92
2022-08-22T13:10:47.000Z,3.28
2022-08-22T13:13:31.605Z,4.00
2022-08-22T13:16:11.730Z,3.67
2022-08-22T13:18:53.714Z,4.15
2022-08-22T13:21:33.314Z,3.80
2022-08-22T13:24:16.899Z,3.78
2022-08-22T13:26:57.719Z,4.93
2022-08-22T13:29:45.418Z,4.00
2022-08-22T13:32:27.726Z,4.35
2022-08-22T13:35:00.181Z,4.13
2022-08-22T13:37:33.797Z,4.00
2022-08-22T13:40:30.555Z,3.42
2022-08-22T13:43:08.435Z,3.58
2022-08-22T13:45:38.225Z,3.47
2022-08-22T13:48:11.740Z,4.50
2022-08-22T13:51:04.832Z,4.18
2022-08-22T13:53:42.390Z,3.60
2022-08-22T13:56:26.348Z,3.45
2022-08-22T13:59:00.034Z,2.60
2022-08-22T14:01:41.853Z,3.00
2022-08-22T14:04:28.718Z,3.40
2022-08-22T14:07:25.518Z,4.05
2022-08-22T14:09:58.216Z,4.00
2022-08-22T14:12:33.519Z,3.60
2022-08-22T14:15:32.343Z,4.13
2022-08-22T14:18:15.321Z,4.35
2022-08-22T14:20:51.501Z,4.63
2022-08-22T14:23:29.441Z,4.63
2022-08-22T14:25:59.433Z,4.50
2022-08-22T14:28:32.947Z,4.80
2022-08-22T14:31:13.493Z,5.43
2022-08-22T14:33:49.546Z,4.60
2022-08-22T14:36:21.287Z,4.15
2022-08-22T14:38:56.772Z,4.90
2022-08-22T14:41:52.598Z,4.40
2022-08-22T14:44:28.540Z,4.20
2022-08-22T14:47:01.201Z,4.82
2022-08-22T14:55:30.581Z,4.82
2022-08-22T14:58:05.940Z,5.15
2022-08-22T15:00:38.393Z,4.68
2022-08-22T15:03:16.683Z,4.75
2022-08-22T15:05:51.986Z,5.18
2022-08-22T15:08:30.248Z,4.35
2022-08-22T15:11:25.625Z,4.65
2022-08-22T15:14:01.022Z,4.40
2022-08-22T15:16:35.038Z,4.93
2022-08-22T15:19:06.798Z,4.78
2022-08-22T15:21:36.942Z,4.90
2022-08-22T15:24:14.065Z,5.03
2022-08-22T15:26:52.463Z,5.03
2022-08-22T15:29:27.071Z,5.72
2022-08-22T15:32:05.522Z,5.88
2022-08-22T15:37:32.400Z,4.72
2022-08-22T15:40:14.024Z,6.25
2022-08-22T15:43:00.401Z,29.33
2022-08-22T15:45:33.705Z,18.60
2022-08-22T15:48:09.391Z,23.17
2022-08-22T15:50:43.280Z,39.08
2022-08-22T15:53:29.411Z,7.15
2022-08-22T15:56:27.345Z,6.32
2022-08-22T15:59:27.370Z,8.55
2022-08-22T16:02:13.685Z,6.97
2022-08-22T16:05:02.396Z,6.57
2022-08-22T16:07:44.079Z,6.25
2022-08-22T16:10:34.197Z,4.95
2022-08-22T16:13:38.126Z,4.88
2022-08-22T16:19:19.215Z,5.30
2022-08-22T16:22:35.809Z,5.47
2022-08-22T16:25:11.980Z,4.97
2022-08-22T16:27:55.854Z,5.93
2022-08-22T16:30:42.494Z,5.60
2022-08-22T16:36:39.240Z,5.63
2022-08-22T16:39:15.624Z,4.97
2022-08-22T16:41:46.379Z,5.93
2022-08-22T16:44:24.171Z,5.55
2022-08-22T16:46:56.614Z,5.18
2022-08-22T16:49:30.473Z,4.97
2022-08-22T16:52:35.585Z,4.85
2022-08-22T16:55:10.181Z,5.75
2022-08-22T16:58:06.084Z,5.22
2022-08-22T17:00:48.738Z,5.40
2022-08-22T17:03:34.230Z,5.85
2022-08-22T17:06:26.969Z,5.32
2022-08-22T17:09:14.913Z,6.30
2022-08-22T17:11:50.749Z,5.80
2022-08-22T17:14:41.613Z,5.15
2022-08-22T17:17:29.987Z,6.78
2022-08-22T17:20:32.761Z,6.28
2022-08-22T17:30:11.936Z,6.20
2022-08-22T17:33:00.571Z,6.88
2022-08-22T17:35:49.902Z,6.35
2022-08-22T17:38:36.692Z,6.75
2022-08-22T17:41:29.681Z,6.45
2022-08-22T17:44:19.180Z,6.75
2022-08-22T17:47:07.481Z,6.95
2022-08-22T17:52:44.663Z,7.13
2022-08-22T17:55:18.601Z,6.57
2022-08-22T17:57:55.416Z,7.38
2022-08-22T18:00:36.523Z,5.72
2022-08-22T18:03:10.035Z,6.47
2022-08-22T18:05:49.275Z,5.65
2022-08-22T18:11:25.496Z,6.15
2022-08-22T18:14:05.094Z,6.22
2022-08-22T18:16:51.022Z,6.45
2022-08-22T18:19:42.009Z,6.15
2022-08-22T18:26:04.376Z,6.20
2022-08-22T18:28:38.764Z,5.28
2022-08-22T18:34:33.449Z,6.07
2022-08-22T18:40:29.577Z,6.03
2022-08-22T18:43:14.704Z,6.13
2022-08-22T18:46:03.874Z,5.80
2022-08-22T18:51:41.286Z,5.60
2022-08-22T18:54:36.038Z,6.43
2022-08-22T19:00:13.309Z,5.10
2022-08-22T19:03:30.425Z,5.65
2022-08-22T19:06:37.932Z,6.18
2022-08-22T19:09:39.226Z,6.75
2022-08-22T19:12:21.348Z,5.65
2022-08-22T19:15:10.418Z,6.50
2022-08-22T19:18:10.505Z,6.55
2022-08-22T19:20:58.229Z,6.47
2022-08-22T19:23:49.344Z,6.18
2022-08-22T19:26:29.114Z,6.63
2022-08-22T19:29:00.846Z,5.32
2022-08-22T19:31:46.512Z,6.60
2022-08-22T19:34:22.321Z,6.93
2022-08-22T19:37:38.260Z,6.25
2022-08-22T19:40:14.323Z,5.95
2022-08-22T19:42:55.173Z,5.70
2022-08-22T19:45:29.440Z,6.32
2022-08-22T19:48:01.994Z,6.43
2022-08-22T19:50:39.641Z,6.63
2022-08-22T19:53:35.893Z,7.00
2022-08-22T19:56:23.558Z,5.63
2022-08-22T19:59:09.113Z,5.75
2022-08-22T20:01:46.776Z,6.10
2022-08-22T20:04:40.725Z,5.68
2022-08-22T20:07:24.239Z,5.97
2022-08-22T20:10:04.638Z,6.00
2022-08-22T20:12:55.189Z,6.53
2022-08-22T20:15:27.562Z,6.13
2022-08-22T20:18:12.127Z,6.18
2022-08-22T20:23:45.359Z,6.30
2022-08-22T20:26:20.538Z,6.07
2022-08-22T20:28:53.407Z,6.00
2022-08-22T20:31:24.074Z,5.57
2022-08-22T20:33:58.947Z,5.20
2022-08-22T20:36:29.399Z,6.32
2022-08-22T20:39:03.374Z,5.80
2022-08-22T20:41:38.775Z,5.28
2022-08-22T20:44:15.906Z,5.75
2022-08-22T20:46:53.774Z,5.28
2022-08-22T20:49:27.033Z,5.78
2022-08-22T20:51:59.670Z,5.80
2022-08-22T20:54:32.536Z,5.40
2022-08-22T20:57:03.384Z,5.70
2022-08-22T20:59:36.686Z,5.63
2022-08-22T21:02:10.320Z,5.97
2022-08-22T21:04:52.718Z,6.15
2022-08-22T21:07:23.269Z,6.45
2022-08-22T21:10:36.945Z,6.00
2022-08-22T21:13:08.973Z,5.35
2022-08-22T21:15:39.521Z,5.90
2022-08-22T21:18:09.327Z,6.10
2022-08-22T21:20:39.953Z,5.88
2022-08-22T21:23:20.804Z,5.30
2022-08-22T21:25:56.673Z,5.57
2022-08-22T21:28:34.086Z,5.80
2022-08-22T21:31:11.217Z,5.90
2022-08-22T21:33:43.308Z,5.78
2022-08-22T21:36:15.269Z,6.63
2022-08-22T21:38:49.776Z,6.10
2022-08-22T21:41:28.238Z,5.70
2022-08-22T21:43:56.875Z,6.22
2022-08-22T21:46:28.680Z,5.75
2022-08-22T21:49:01.111Z,6.22
2022-08-22T21:51:33.138Z,6.03
2022-08-22T21:54:20.876Z,6.50
2022-08-22T21:56:51.157Z,6.38
2022-08-22T21:59:52.142Z,6.18
2022-08-22T22:02:34.219Z,6.10
2022-08-22T22:05:09.550Z,5.78
2022-08-22T22:07:40.237Z,6.38
2022-08-22T22:10:10.804Z,6.45
2022-08-22T22:12:41.948Z,5.60
2022-08-22T22:15:13.459Z,6.00
2022-08-22T22:17:41.715Z,5.97
2022-08-22T22:20:11.281Z,6.00
2022-08-22T22:22:45.722Z,5.00
2022-08-22T22:25:39.825Z,6.30
2022-08-22T22:28:07.283Z,6.18
2022-08-22T22:30:35.928Z,5.97
2022-08-22T22:33:03.977Z,5.88
2022-08-22T22:35:32.775Z,5.82
2022-08-22T22:38:01.146Z,5.00
2022-08-22T22:40:29.371Z,6.07
2022-08-22T22:42:57.504Z,5.25
2022-08-22T22:45:26.988Z,6.07
2022-08-22T22:47:55.145Z,5.97
2022-08-22T22:50:23.255Z,6.05
2022-08-22T22:52:51.345Z,6.80
2022-08-22T22:55:24.929Z,5.60
2022-08-22T22:57:59.012Z,5.45
2022-08-22T23:00:30.803Z,5.82
2022-08-22T23:03:00.268Z,5.80
2022-08-22T23:05:28.791Z,5.72
2022-08-22T23:07:57.202Z,5.55
2022-08-22T23:10:25.539Z,6.55
2022-08-22T23:12:53.570Z,5.55
2022-08-22T23:15:21.620Z,5.78
2022-08-22T23:17:51.283Z,5.15
2022-08-22T23:20:19.935Z,6.05
2022-08-22T23:22:48.576Z,5.85
2022-08-22T23:25:16.673Z,5.63
2022-08-22T23:27:45.083Z,5.50
2022-08-22T23:30:20.279Z,5.90
2022-08-22T23:32:48.582Z,5.90
2022-08-22T23:35:18.249Z,5.38
2022-08-22T23:37:46.456Z,5.40
2022-08-22T23:40:14.510Z,5.45
2022-08-22T23:42:43.215Z,6.50
2022-08-22T23:45:11.387Z,5.80
2022-08-22T23:47:39.496Z,5.55
2022-08-22T23:50:07.814Z,5.63
2022-08-22T23:52:37.767Z,5.28
2022-08-22T23:55:06.696Z,6.07
2022-08-22T23:57:34.753Z,6.18
